sensor_id;sensor_type;location;lat;lon;timestamp;pressure;altitude;pressure_sealevel;temperature;humidity
53960;BME280;39866;48.638;-2.020;2024-03-23T00:55:36;101858.47;;;13.74;100.00
53960;BME280;39866;48.638;-2.020;2024-03-23T00:58:01;101860.66;;;13.94;100.00
53960;BME280;39866;48.638;-2.020;2024-03-23T01:00:26;101870.44;;;13.95;100.00
53960;BME280;39866;48.638;-2.020;2024-03-23T01:02:52;101864.09;;;13.61;100.00
53960;BME280;39866;48.638;-2.020;2024-03-23T01:05:17;101856.53;;;13.80;100.00
53960;BME280;39866;48.638;-2.020;2024-03-23T01:07:43;101857.28;;;14.21;100.00
53960;BME280;39866;48.638;-2.020;2024-03-23T01:10:08;101855.91;;;14.05;100.00
53960;BME280;39866;48.638;-2.020;2024-03-23T01:12:34;101860.41;;;14.03;100.00
53960;BME280;39866;48.638;-2.020;2024-03-23T01:14:59;101863.63;;;13.81;100.00
53960;BME280;39866;48.638;-2.020;2024-03-23T01:17:25;101869.06;;;13.78;100.00
53960;BME280;39866;48.638;-2.020;2024-03-23T01:19:50;101868.25;;;13.75;100.00
53960;BME280;39866;48.638;-2.020;2024-03-23T01:22:15;101875.47;;;13.71;100.00
53960;BME280;39866;48.638;-2.020;2024-03-23T01:24:40;101875.84;;;13.54;100.00
53960;BME280;39866;48.638;-2.020;2024-03-23T01:27:06;101878.78;;;13.44;100.00
53960;BME280;39866;48.638;-2.020;2024-03-23T01:29:31;101876.94;;;13.46;100.00
53960;BME280;39866;48.638;-2.020;2024-03-23T01:31:57;101873.78;;;13.28;100.00
53960;BME280;39866;48.638;-2.020;2024-03-23T01:34:22;101869.91;;;13.42;100.00
53960;BME280;39866;48.638;-2.020;2024-03-23T01:36:47;101870.34;;;12.78;100.00
53960;BME280;39866;48.638;-2.020;2024-03-23T01:39:13;101863.50;;;12.14;100.00
53960;BME280;39866;48.638;-2.020;2024-03-23T01:41:39;101875.94;;;12.15;100.00
53960;BME280;39866;48.638;-2.020;2024-03-23T01:44:07;101872.28;;;12.22;100.00
53960;BME280;39866;48.638;-2.020;2024-03-23T01:46:33;101863.69;;;12.53;100.00
53960;BME280;39866;48.638;-2.020;2024-03-23T01:48:59;101872.44;;;12.61;100.00
53960;BME280;39866;48.638;-2.020;2024-03-23T01:51:25;101885.94;;;12.55;100.00
53960;BME280;39866;48.638;-2.020;2024-03-23T01:53:52;101872.53;;;12.56;100.00
53960;BME280;39866;48.638;-2.020;2024-03-23T01:56:18;101881.63;;;12.46;100.00
53960;BME280;39866;48.638;-2.020;2024-03-23T01:58:43;101872.44;;;12.61;100.00
53960;BME280;39866;48.638;-2.020;2024-03-23T02:01:09;101881.91;;;12.77;100.00
53960;BME280;39866;48.638;-2.020;2024-03-23T02:03:34;101897.69;;;12.91;100.00
53960;BME280;39866;48.638;-2.020;2024-03-23T02:05:59;101890.91;;;12.73;100.00
53960;BME280;39866;48.638;-2.020;2024-03-23T02:08:25;101896.34;;;12.69;100.00
53960;BME280;39866;48.638;-2.020;2024-03-23T02:10:51;101885.97;;;12.53;100.00
53960;BME280;39866;48.638;-2.020;2024-03-23T02:13:18;101886.38;;;12.78;100.00
53960;BME280;39866;48.638;-2.020;2024-03-23T02:15:43;101880.38;;;12.16;100.00
53960;BME280;39866;48.638;-2.020;2024-03-23T02:18:10;101886.25;;;12.36;100.00
53960;BME280;39866;48.638;-2.020;2024-03-23T02:20:35;101862.66;;;12.60;100.00
53960;BME280;39866;48.638;-2.020;2024-03-23T02:23:01;101861.09;;;12.50;100.00
53960;BME280;39866;48.638;-2.020;2024-03-23T02:25:27;101867.41;;;12.44;100.00
53960;BME280;39866;48.638;-2.020;2024-03-23T02:27:52;101884.41;;;12.42;100.00
53960;BME280;39866;48.638;-2.020;2024-03-23T02:30:19;101872.38;;;12.16;100.00
53960;BME280;39866;48.638;-2.020;2024-03-23T02:32:45;101874.97;;;12.21;100.00
53960;BME280;39866;48.638;-2.020;2024-03-23T02:35:10;101864.31;;;12.19;100.00
53960;BME280;39866;48.638;-2.020;2024-03-23T02:37:36;101868.28;;;12.45;100.00
53960;BME280;39866;48.638;-2.020;2024-03-23T02:40:01;101871.69;;;12.53;100.00
53960;BME280;39866;48.638;-2.020;2024-03-23T02:42:27;101863.41;;;12.68;100.00
53960;BME280;39866;48.638;-2.020;2024-03-23T02:44:52;101869.63;;;12.70;100.00
53960;BME280;39866;48.638;-2.020;2024-03-23T02:47:17;101851.09;;;12.59;100.00
53960;BME280;39866;48.638;-2.020;2024-03-23T02:49:43;101851.53;;;12.83;100.00
53960;BME280;39866;48.638;-2.020;2024-03-23T02:52:08;101871.91;;;12.90;100.00
53960;BME280;39866;48.638;-2.020;2024-03-23T02:54:33;101837.03;;;12.95;100.00
53960;BME280;39866;48.638;-2.020;2024-03-23T02:56:58;101873.84;;;12.82;100.00
53960;BME280;39866;48.638;-2.020;2024-03-23T02:59:24;101873.41;;;13.02;100.00
53960;BME280;39866;48.638;-2.020;2024-03-23T03:01:49;101859.72;;;13.17;100.00
53960;BME280;39866;48.638;-2.020;2024-03-23T03:04:15;101869.94;;;12.97;100.00
53960;BME280;39866;48.638;-2.020;2024-03-23T03:06:40;101865.59;;;13.36;100.00
53960;BME280;39866;48.638;-2.020;2024-03-23T03:09:06;101863.88;;;12.88;100.00
53960;BME280;39866;48.638;-2.020;2024-03-23T03:11:31;101876.78;;;13.10;100.00
53960;BME280;39866;48.638;-2.020;2024-03-23T03:13:57;101864.16;;;13.18;100.00
53960;BME280;39866;48.638;-2.020;2024-03-23T03:16:22;101861.25;;;12.85;100.00
53960;BME280;39866;48.638;-2.020;2024-03-23T03:18:47;101859.88;;;12.18;100.00
53960;BME280;39866;48.638;-2.020;2024-03-23T03:21:13;101878.69;;;12.10;100.00
53960;BME280;39866;48.638;-2.020;2024-03-23T03:23:38;101870.94;;;11.97;100.00
53960;BME280;39866;48.638;-2.020;2024-03-23T03:26:04;101871.03;;;11.90;100.00
53960;BME280;39866;48.638;-2.020;2024-03-23T03:28:31;101875.44;;;11.92;100.00
53960;BME280;39866;48.638;-2.020;2024-03-23T03:30:58;101869.06;;;12.02;100.00
53960;BME280;39866;48.638;-2.020;2024-03-23T03:33:23;101866.59;;;12.40;100.00
53960;BME280;39866;48.638;-2.020;2024-03-23T03:35:48;101867.63;;;12.80;100.00
53960;BME280;39866;48.638;-2.020;2024-03-23T03:38:14;101875.84;;;12.69;100.00
53960;BME280;39866;48.638;-2.020;2024-03-23T03:40:39;101869.38;;;12.81;100.00
53960;BME280;39866;48.638;-2.020;2024-03-23T03:43:06;101860.81;;;13.08;100.00
53960;BME280;39866;48.638;-2.020;2024-03-23T03:45:32;101856.31;;;13.09;100.00
53960;BME280;39866;48.638;-2.020;2024-03-23T03:47:57;101863.25;;;13.18;100.00
53960;BME280;39866;48.638;-2.020;2024-03-23T03:50:22;101866.69;;;13.27;100.00
53960;BME280;39866;48.638;-2.020;2024-03-23T03:52:48;101874.53;;;13.35;100.00
53960;BME280;39866;48.638;-2.020;2024-03-23T03:55:14;101861.47;;;13.60;100.00
53960;BME280;39866;48.638;-2.020;2024-03-23T03:57:40;101867.00;;;13.52;100.00
53960;BME280;39866;48.638;-2.020;2024-03-23T04:00:06;101861.78;;;13.46;100.00
53960;BME280;39866;48.638;-2.020;2024-03-23T04:02:32;101877.66;;;13.12;100.00
53960;BME280;39866;48.638;-2.020;2024-03-23T04:04:57;101881.97;;;12.76;100.00
53960;BME280;39866;48.638;-2.020;2024-03-23T04:07:23;101880.69;;;12.95;100.00
53960;BME280;39866;48.638;-2.020;2024-03-23T04:09:48;101869.38;;;12.82;100.00
53960;BME280;39866;48.638;-2.020;2024-03-23T04:12:15;101875.47;;;13.32;100.00
53960;BME280;39866;48.638;-2.020;2024-03-23T04:14:40;101875.16;;;13.46;100.00
53960;BME280;39866;48.638;-2.020;2024-03-23T04:17:06;101874.06;;;13.55;100.00
53960;BME280;39866;48.638;-2.020;2024-03-23T04:19:31;101871.59;;;13.46;100.00
53960;BME280;39866;48.638;-2.020;2024-03-23T04:21:57;101876.72;;;13.55;100.00
53960;BME280;39866;48.638;-2.020;2024-03-23T04:24:22;101871.88;;;13.33;100.00
53960;BME280;39866;48.638;-2.020;2024-03-23T04:26:48;101880.88;;;13.29;100.00
53960;BME280;39866;48.638;-2.020;2024-03-23T04:29:13;101886.28;;;13.26;100.00
53960;BME280;39866;48.638;-2.020;2024-03-23T04:31:39;101868.75;;;13.11;100.00
53960;BME280;39866;48.638;-2.020;2024-03-23T04:34:04;101891.84;;;13.16;100.00
53960;BME280;39866;48.638;-2.020;2024-03-23T04:36:29;101901.25;;;12.92;100.00
53960;BME280;39866;48.638;-2.020;2024-03-23T04:38:56;101875.91;;;13.11;100.00
53960;BME280;39866;48.638;-2.020;2024-03-23T04:41:22;101876.19;;;13.41;100.00
53960;BME280;39866;48.638;-2.020;2024-03-23T04:43:47;101870.94;;;13.34;100.00
53960;BME280;39866;48.638;-2.020;2024-03-23T04:46:12;101866.91;;;13.15;100.00
53960;BME280;39866;48.638;-2.020;2024-03-23T04:48:38;101882.06;;;13.14;100.00
53960;BME280;39866;48.638;-2.020;2024-03-23T04:51:03;101872.78;;;13.32;100.00
53960;BME280;39866;48.638;-2.020;2024-03-23T04:53:29;101881.47;;;13.42;100.00
53960;BME280;39866;48.638;-2.020;2024-03-23T04:55:58;101881.81;;;13.28;100.00
53960;BME280;39866;48.638;-2.020;2024-03-23T04:58:24;101889.19;;;13.14;100.00
53960;BME280;39866;48.638;-2.020;2024-03-23T05:00:56;101884.88;;;13.50;100.00
53960;BME280;39866;48.638;-2.020;2024-03-23T05:03:23;101910.63;;;13.54;100.00
53960;BME280;39866;48.638;-2.020;2024-03-23T05:05:49;101894.94;;;13.39;100.00
53960;BME280;39866;48.638;-2.020;2024-03-23T05:08:15;101874.69;;;13.27;100.00
53960;BME280;39866;48.638;-2.020;2024-03-23T05:10:43;101878.34;;;13.23;100.00
53960;BME280;39866;48.638;-2.020;2024-03-23T05:13:09;101908.09;;;13.05;100.00
53960;BME280;39866;48.638;-2.020;2024-03-23T05:15:34;101873.66;;;13.33;100.00
53960;BME280;39866;48.638;-2.020;2024-03-23T05:18:00;101877.91;;;13.00;100.00
53960;BME280;39866;48.638;-2.020;2024-03-23T05:20:25;101869.38;;;13.26;100.00
53960;BME280;39866;48.638;-2.020;2024-03-23T05:22:51;101896.44;;;13.10;100.00
53960;BME280;39866;48.638;-2.020;2024-03-23T05:25:16;101879.66;;;13.02;100.00
53960;BME280;39866;48.638;-2.020;2024-03-23T05:27:41;101875.00;;;13.12;100.00
53960;BME280;39866;48.638;-2.020;2024-03-23T05:30:07;101881.16;;;13.16;100.00
53960;BME280;39866;48.638;-2.020;2024-03-23T05:32:34;101877.22;;;13.33;100.00
53960;BME280;39866;48.638;-2.020;2024-03-23T05:34:59;101890.75;;;13.26;100.00
53960;BME280;39866;48.638;-2.020;2024-03-23T05:37:24;101887.91;;;13.35;100.00
53960;BME280;39866;48.638;-2.020;2024-03-23T05:39:51;101876.78;;;13.11;100.00
53960;BME280;39866;48.638;-2.020;2024-03-23T05:42:17;101878.59;;;13.11;100.00
53960;BME280;39866;48.638;-2.020;2024-03-23T05:44:46;101888.41;;;13.51;100.00
53960;BME280;39866;48.638;-2.020;2024-03-23T05:47:12;101891.84;;;13.57;100.00
53960;BME280;39866;48.638;-2.020;2024-03-23T05:49:39;101889.91;;;13.22;100.00
53960;BME280;39866;48.638;-2.020;2024-03-23T05:52:05;101905.44;;;13.05;100.00
53960;BME280;39866;48.638;-2.020;2024-03-23T05:54:30;101885.41;;;13.26;100.00
53960;BME280;39866;48.638;-2.020;2024-03-23T05:56:55;101887.03;;;13.33;100.00
53960;BME280;39866;48.638;-2.020;2024-03-23T05:59:21;101885.56;;;13.58;100.00
53960;BME280;39866;48.638;-2.020;2024-03-23T06:01:49;101914.16;;;13.14;100.00
53960;BME280;39866;48.638;-2.020;2024-03-23T06:04:14;101926.56;;;12.72;100.00
53960;BME280;39866;48.638;-2.020;2024-03-23T06:06:39;101920.56;;;12.59;100.00
53960;BME280;39866;48.638;-2.020;2024-03-23T06:09:05;101924.38;;;12.45;100.00
53960;BME280;39866;48.638;-2.020;2024-03-23T06:11:30;101916.31;;;12.49;100.00
53960;BME280;39866;48.638;-2.020;2024-03-23T06:13:56;101918.06;;;12.50;100.00
53960;BME280;39866;48.638;-2.020;2024-03-23T06:16:21;101911.03;;;12.45;100.00
53960;BME280;39866;48.638;-2.020;2024-03-23T06:18:50;101910.97;;;12.49;100.00
53960;BME280;39866;48.638;-2.020;2024-03-23T06:21:16;101910.34;;;12.33;100.00
53960;BME280;39866;48.638;-2.020;2024-03-23T06:23:41;101901.59;;;12.25;100.00
53960;BME280;39866;48.638;-2.020;2024-03-23T06:26:07;101905.78;;;12.40;100.00
53960;BME280;39866;48.638;-2.020;2024-03-23T06:28:33;101912.59;;;12.56;100.00
53960;BME280;39866;48.638;-2.020;2024-03-23T06:30:58;101919.00;;;12.49;100.00
53960;BME280;39866;48.638;-2.020;2024-03-23T06:33:24;101900.06;;;12.60;100.00
53960;BME280;39866;48.638;-2.020;2024-03-23T06:35:50;101909.03;;;12.57;100.00
53960;BME280;39866;48.638;-2.020;2024-03-23T06:38:17;101907.91;;;12.69;100.00
53960;BME280;39866;48.638;-2.020;2024-03-23T06:40:42;101907.34;;;12.52;100.00
53960;BME280;39866;48.638;-2.020;2024-03-23T06:43:08;101931.00;;;12.73;100.00
53960;BME280;39866;48.638;-2.020;2024-03-23T06:45:33;101911.03;;;12.93;100.00
53960;BME280;39866;48.638;-2.020;2024-03-23T06:47:59;101890.97;;;13.15;100.00
53960;BME280;39866;48.638;-2.020;2024-03-23T06:50:24;101912.00;;;12.88;100.00
53960;BME280;39866;48.638;-2.020;2024-03-23T06:52:50;101918.47;;;12.77;100.00
53960;BME280;39866;48.638;-2.020;2024-03-23T06:55:15;101911.91;;;12.93;100.00
53960;BME280;39866;48.638;-2.020;2024-03-23T06:57:40;101899.25;;;13.01;100.00
53960;BME280;39866;48.638;-2.020;2024-03-23T07:00:06;101921.66;;;12.96;100.00
53960;BME280;39866;48.638;-2.020;2024-03-23T07:02:35;101899.88;;;13.14;100.00
53960;BME280;39866;48.638;-2.020;2024-03-23T07:05:00;101894.44;;;13.20;100.00
53960;BME280;39866;48.638;-2.020;2024-03-23T07:07:26;101907.84;;;13.17;100.00
53960;BME280;39866;48.638;-2.020;2024-03-23T07:09:52;101894.69;;;13.08;100.00
53960;BME280;39866;48.638;-2.020;2024-03-23T07:12:17;101901.41;;;13.29;100.00
53960;BME280;39866;48.638;-2.020;2024-03-23T07:14:43;101899.78;;;13.20;100.00
53960;BME280;39866;48.638;-2.020;2024-03-23T07:17:08;101888.31;;;13.15;100.00
53960;BME280;39866;48.638;-2.020;2024-03-23T07:19:33;101898.63;;;13.33;100.00
53960;BME280;39866;48.638;-2.020;2024-03-23T07:21:59;101901.28;;;13.35;100.00
53960;BME280;39866;48.638;-2.020;2024-03-23T07:24:24;101921.66;;;13.41;100.00
53960;BME280;39866;48.638;-2.020;2024-03-23T07:26:50;101895.94;;;13.33;100.00
53960;BME280;39866;48.638;-2.020;2024-03-23T07:29:16;101882.72;;;13.27;100.00
53960;BME280;39866;48.638;-2.020;2024-03-23T07:31:41;101909.16;;;13.41;100.00
53960;BME280;39866;48.638;-2.020;2024-03-23T07:34:07;101905.66;;;13.39;100.00
53960;BME280;39866;48.638;-2.020;2024-03-23T07:36:32;101913.31;;;13.12;100.00
53960;BME280;39866;48.638;-2.020;2024-03-23T07:38:57;101896.19;;;13.21;100.00
53960;BME280;39866;48.638;-2.020;2024-03-23T07:41:23;101902.91;;;12.97;100.00
53960;BME280;39866;48.638;-2.020;2024-03-23T07:43:48;101903.28;;;12.79;100.00
53960;BME280;39866;48.638;-2.020;2024-03-23T07:46:15;101908.09;;;13.05;100.00
53960;BME280;39866;48.638;-2.020;2024-03-23T07:48:41;101921.75;;;12.91;100.00
53960;BME280;39866;48.638;-2.020;2024-03-23T07:51:09;101907.75;;;12.78;100.00
53960;BME280;39866;48.638;-2.020;2024-03-23T07:53:35;101914.22;;;12.67;100.00
53960;BME280;39866;48.638;-2.020;2024-03-23T07:56:06;101906.06;;;12.73;100.00
53960;BME280;39866;48.638;-2.020;2024-03-23T07:58:32;101898.91;;;12.75;100.00
53960;BME280;39866;48.638;-2.020;2024-03-23T08:01:07;101894.88;;;12.97;100.00
53960;BME280;39866;48.638;-2.020;2024-03-23T08:03:39;101903.88;;;12.93;100.00
53960;BME280;39866;48.638;-2.020;2024-03-23T08:06:15;101908.59;;;12.82;100.00
53960;BME280;39866;48.638;-2.020;2024-03-23T08:08:43;101907.41;;;12.95;100.00
53960;BME280;39866;48.638;-2.020;2024-03-23T08:11:08;101909.22;;;12.93;100.00
53960;BME280;39866;48.638;-2.020;2024-03-23T08:13:35;101908.91;;;12.63;100.00
53960;BME280;39866;48.638;-2.020;2024-03-23T08:16:02;101913.88;;;12.83;100.00
53960;BME280;39866;48.638;-2.020;2024-03-23T08:18:28;101901.88;;;13.04;100.00
53960;BME280;39866;48.638;-2.020;2024-03-23T08:21:01;101900.94;;;13.07;100.00
53960;BME280;39866;48.638;-2.020;2024-03-23T08:23:27;101896.88;;;12.87;100.00
53960;BME280;39866;48.638;-2.020;2024-03-23T08:26:03;101909.91;;;13.04;100.00
53960;BME280;39866;48.638;-2.020;2024-03-23T08:28:29;101909.06;;;13.01;100.00
53960;BME280;39866;48.638;-2.020;2024-03-23T08:30:55;101911.41;;;13.19;100.00
53960;BME280;39866;48.638;-2.020;2024-03-23T08:33:21;101905.88;;;13.28;100.00
53960;BME280;39866;48.638;-2.020;2024-03-23T08:36:04;101896.38;;;13.12;100.00
53960;BME280;39866;48.638;-2.020;2024-03-23T08:38:30;101912.28;;;13.18;100.00
53960;BME280;39866;48.638;-2.020;2024-03-23T08:43:29;101920.69;;;12.53;100.00
53960;BME280;39866;48.638;-2.020;2024-03-23T08:46:10;101925.25;;;12.47;100.00
53960;BME280;39866;48.638;-2.020;2024-03-23T08:48:43;101911.84;;;12.50;100.00
53960;BME280;39866;48.638;-2.020;2024-03-23T08:51:09;101935.16;;;12.42;100.00
53960;BME280;39866;48.638;-2.020;2024-03-23T08:53:36;101920.28;;;12.25;100.00
53960;BME280;39866;48.638;-2.020;2024-03-23T08:56:02;101922.66;;;12.40;100.00
53960;BME280;39866;48.638;-2.020;2024-03-23T08:58:28;101929.13;;;12.27;100.00
53960;BME280;39866;48.638;-2.020;2024-03-23T09:00:56;101920.16;;;12.31;100.00
53960;BME280;39866;48.638;-2.020;2024-03-23T09:03:25;101931.94;;;12.21;100.00
53960;BME280;39866;48.638;-2.020;2024-03-23T09:05:51;101916.72;;;12.26;100.00
53960;BME280;39866;48.638;-2.020;2024-03-23T09:08:17;101910.91;;;12.52;100.00
53960;BME280;39866;48.638;-2.020;2024-03-23T09:10:43;101912.19;;;12.30;100.00
53960;BME280;39866;48.638;-2.020;2024-03-23T09:13:08;101921.50;;;12.57;100.00
53960;BME280;39866;48.638;-2.020;2024-03-23T09:15:36;101908.78;;;12.71;100.00
53960;BME280;39866;48.638;-2.020;2024-03-23T09:18:02;101907.91;;;12.71;100.00
53960;BME280;39866;48.638;-2.020;2024-03-23T09:20:28;101894.44;;;12.75;100.00
53960;BME280;39866;48.638;-2.020;2024-03-23T09:22:54;101893.91;;;13.03;100.00
53960;BME280;39866;48.638;-2.020;2024-03-23T09:25:19;101907.84;;;13.17;100.00
53960;BME280;39866;48.638;-2.020;2024-03-23T09:27:46;101920.56;;;13.49;100.00
53960;BME280;39866;48.638;-2.020;2024-03-23T09:30:13;101929.25;;;13.17;100.00
53960;BME280;39866;48.638;-2.020;2024-03-23T09:32:39;101917.56;;;12.76;100.00
53960;BME280;39866;48.638;-2.020;2024-03-23T09:35:04;101924.19;;;12.55;100.00
53960;BME280;39866;48.638;-2.020;2024-03-23T09:37:30;101925.13;;;12.53;100.00
53960;BME280;39866;48.638;-2.020;2024-03-23T09:39:55;101923.63;;;12.36;100.00
53960;BME280;39866;48.638;-2.020;2024-03-23T09:42:20;101923.84;;;12.26;100.00
53960;BME280;39866;48.638;-2.020;2024-03-23T09:44:46;101933.00;;;12.08;100.00
53960;BME280;39866;48.638;-2.020;2024-03-23T09:47:16;101912.81;;;11.93;100.00
53960;BME280;39866;48.638;-2.020;2024-03-23T09:49:41;101909.91;;;12.08;100.00
53960;BME280;39866;48.638;-2.020;2024-03-23T09:52:07;101907.09;;;12.14;100.00
53960;BME280;39866;48.638;-2.020;2024-03-23T09:54:32;101909.59;;;12.25;100.00
53960;BME280;39866;48.638;-2.020;2024-03-23T09:56:58;101885.50;;;12.30;100.00
53960;BME280;39866;48.638;-2.020;2024-03-23T09:59:23;101902.00;;;12.53;100.00
53960;BME280;39866;48.638;-2.020;2024-03-23T10:01:52;101899.38;;;12.49;100.00
53960;BME280;39866;48.638;-2.020;2024-03-23T10:07:10;101896.06;;;12.36;100.00
53960;BME280;39866;48.638;-2.020;2024-03-23T10:09:35;101892.66;;;12.76;100.00
53960;BME280;39866;48.638;-2.020;2024-03-23T10:12:12;101902.69;;;12.63;100.00
53960;BME280;39866;48.638;-2.020;2024-03-23T10:14:39;101947.22;;;12.10;100.00
53960;BME280;39866;48.638;-2.020;2024-03-23T10:19:49;101939.63;;;11.13;100.00
53960;BME280;39866;48.638;-2.020;2024-03-23T10:24:43;101916.47;;;11.18;100.00
53960;BME280;39866;48.638;-2.020;2024-03-23T10:27:08;101909.41;;;11.14;100.00
53960;BME280;39866;48.638;-2.020;2024-03-23T10:29:33;101894.16;;;11.27;100.00
53960;BME280;39866;48.638;-2.020;2024-03-23T10:32:09;101910.16;;;11.25;100.00
53960;BME280;39866;48.638;-2.020;2024-03-23T10:34:36;101901.00;;;11.46;100.00
53960;BME280;39866;48.638;-2.020;2024-03-23T10:37:03;101919.41;;;11.64;100.00
53960;BME280;39866;48.638;-2.020;2024-03-23T10:39:39;101903.09;;;11.87;100.00
53960;BME280;39866;48.638;-2.020;2024-03-23T10:42:09;101907.31;;;12.02;100.00
53960;BME280;39866;48.638;-2.020;2024-03-23T10:44:37;101908.41;;;11.87;100.00
53960;BME280;39866;48.638;-2.020;2024-03-23T10:47:04;101886.00;;;12.01;100.00
53960;BME280;39866;48.638;-2.020;2024-03-23T10:49:33;101899.59;;;11.84;100.00
53960;BME280;39866;48.638;-2.020;2024-03-23T10:52:00;101920.97;;;11.84;100.00
53960;BME280;39866;48.638;-2.020;2024-03-23T10:54:26;101898.47;;;11.99;100.00
53960;BME280;39866;48.638;-2.020;2024-03-23T10:59:33;101885.53;;;11.70;100.00
53960;BME280;39866;48.638;-2.020;2024-03-23T11:02:01;101883.59;;;11.81;100.00
53960;BME280;39866;48.638;-2.020;2024-03-23T11:04:35;101874.84;;;11.71;100.00
53960;BME280;39866;48.638;-2.020;2024-03-23T11:09:53;101872.91;;;11.82;100.00
53960;BME280;39866;48.638;-2.020;2024-03-23T11:14:48;101872.59;;;12.02;100.00
53960;BME280;39866;48.638;-2.020;2024-03-23T11:17:18;101868.03;;;12.10;100.00
53960;BME280;39866;48.638;-2.020;2024-03-23T11:19:44;101868.94;;;12.08;100.00
53960;BME280;39866;48.638;-2.020;2024-03-23T11:25:23;101864.13;;;12.28;100.00
53960;BME280;39866;48.638;-2.020;2024-03-23T11:27:52;101846.34;;;12.29;100.00
53960;BME280;39866;48.638;-2.020;2024-03-23T11:30:24;101860.28;;;12.46;100.00
53960;BME280;39866;48.638;-2.020;2024-03-23T11:32:53;101855.63;;;12.56;100.00
53960;BME280;39866;48.638;-2.020;2024-03-23T11:35:48;101852.69;;;12.70;100.00
53960;BME280;39866;48.638;-2.020;2024-03-23T11:38:15;101832.06;;;12.76;100.00
53960;BME280;39866;48.638;-2.020;2024-03-23T11:40:41;101832.78;;;12.86;100.00
53960;BME280;39866;48.638;-2.020;2024-03-23T11:43:13;101826.13;;;12.62;100.00
53960;BME280;39866;48.638;-2.020;2024-03-23T11:45:42;101823.69;;;12.95;100.00
53960;BME280;39866;48.638;-2.020;2024-03-23T11:48:13;101826.81;;;13.13;100.00
53960;BME280;39866;48.638;-2.020;2024-03-23T11:50:43;101810.91;;;13.07;100.00
53960;BME280;39866;48.638;-2.020;2024-03-23T11:55:54;101819.25;;;12.92;100.00
53960;BME280;39866;48.638;-2.020;2024-03-23T11:58:21;101808.47;;;12.55;100.00
53960;BME280;39866;48.638;-2.020;2024-03-23T12:01:02;101800.00;;;12.76;100.00
53960;BME280;39866;48.638;-2.020;2024-03-23T12:03:29;101807.28;;;12.68;100.00
53960;BME280;39866;48.638;-2.020;2024-03-23T12:05:56;101798.59;;;12.58;100.00
53960;BME280;39866;48.638;-2.020;2024-03-23T12:08:32;101804.66;;;12.65;100.00
53960;BME280;39866;48.638;-2.020;2024-03-23T12:11:10;101799.16;;;12.73;100.00
53960;BME280;39866;48.638;-2.020;2024-03-23T12:13:37;101772.34;;;12.79;100.00
53960;BME280;39866;48.638;-2.020;2024-03-23T12:16:10;101789.97;;;12.87;100.00
53960;BME280;39866;48.638;-2.020;2024-03-23T12:18:39;101784.03;;;13.13;100.00
53960;BME280;39866;48.638;-2.020;2024-03-23T12:21:08;101793.09;;;13.08;100.00
53960;BME280;39866;48.638;-2.020;2024-03-23T12:23:34;101799.13;;;13.16;100.00
53960;BME280;39866;48.638;-2.020;2024-03-23T12:26:00;101797.97;;;12.44;100.00
53960;BME280;39866;48.638;-2.020;2024-03-23T12:28:25;101807.25;;;12.25;100.00
53960;BME280;39866;48.638;-2.020;2024-03-23T12:30:51;101807.72;;;12.47;100.00
53960;BME280;39866;48.638;-2.020;2024-03-23T12:33:20;101809.97;;;12.22;100.00
53960;BME280;39866;48.638;-2.020;2024-03-23T12:35:52;101776.16;;;12.22;100.00
53960;BME280;39866;48.638;-2.020;2024-03-23T12:38:17;101786.78;;;12.24;100.00
53960;BME280;39866;48.638;-2.020;2024-03-23T12:40:49;101765.28;;;12.33;100.00
53960;BME280;39866;48.638;-2.020;2024-03-23T12:43:15;101776.25;;;12.16;100.00
53960;BME280;39866;48.638;-2.020;2024-03-23T12:45:41;101759.91;;;12.34;100.00
53960;BME280;39866;48.638;-2.020;2024-03-23T12:48:11;101751.69;;;12.44;100.00
53960;BME280;39866;48.638;-2.020;2024-03-23T12:50:36;101742.44;;;12.61;100.00
53960;BME280;39866;48.638;-2.020;2024-03-23T12:53:04;101754.94;;;12.59;100.00
53960;BME280;39866;48.638;-2.020;2024-03-23T12:55:30;101735.47;;;12.95;100.00
53960;BME280;39866;48.638;-2.020;2024-03-23T12:57:55;101749.09;;;13.21;100.00
53960;BME280;39866;48.638;-2.020;2024-03-23T13:00:21;101758.84;;;13.25;100.00
53960;BME280;39866;48.638;-2.020;2024-03-23T13:02:46;101743.25;;;13.44;100.00
53960;BME280;39866;48.638;-2.020;2024-03-23T13:05:12;101745.50;;;13.61;100.00
53960;BME280;39866;48.638;-2.020;2024-03-23T13:07:37;101736.34;;;13.70;100.00
53960;BME280;39866;48.638;-2.020;2024-03-23T13:10:04;101736.47;;;13.65;100.00
53960;BME280;39866;48.638;-2.020;2024-03-23T13:12:30;101726.00;;;13.90;100.00
53960;BME280;39866;48.638;-2.020;2024-03-23T13:14:56;101733.84;;;13.62;100.00
53960;BME280;39866;48.638;-2.020;2024-03-23T13:17:21;101741.25;;;13.52;100.00
53960;BME280;39866;48.638;-2.020;2024-03-23T13:19:46;101802.47;;;12.85;100.00
53960;BME280;39866;48.638;-2.020;2024-03-23T13:22:12;101731.34;;;12.80;100.00
53960;BME280;39866;48.638;-2.020;2024-03-23T13:24:38;101744.91;;;12.71;100.00
53960;BME280;39866;48.638;-2.020;2024-03-23T13:27:03;101734.59;;;12.52;100.00
53960;BME280;39866;48.638;-2.020;2024-03-23T13:29:30;101715.56;;;12.68;100.00
53960;BME280;39866;48.638;-2.020;2024-03-23T13:31:56;101708.63;;;12.59;100.00
53960;BME280;39866;48.638;-2.020;2024-03-23T13:34:21;101712.34;;;12.53;100.00
53960;BME280;39866;48.638;-2.020;2024-03-23T13:36:47;101698.72;;;12.66;100.00
53960;BME280;39866;48.638;-2.020;2024-03-23T13:39:16;101695.59;;;12.44;100.00
53960;BME280;39866;48.638;-2.020;2024-03-23T13:41:44;101702.41;;;12.58;100.00
53960;BME280;39866;48.638;-2.020;2024-03-23T13:44:11;101696.66;;;13.14;100.00
53960;BME280;39866;48.638;-2.020;2024-03-23T13:46:37;101688.19;;;13.35;100.00